createdAt,value
2022-10-11T00:00:56.304Z,10.77
2022-10-11T00:03:24.516Z,10.77
2022-10-11T00:05:53.935Z,10.80
2022-10-11T00:08:22.825Z,10.82
2022-10-11T00:10:59.453Z,10.84
2022-10-11T00:13:27.837Z,10.84
2022-10-11T00:15:56.440Z,10.86
2022-10-11T00:18:24.690Z,10.86
2022-10-11T00:21:01.311Z,10.88
2022-10-11T00:23:29.400Z,10.93
2022-10-11T00:25:59.944Z,10.93
2022-10-11T00:28:28.158Z,10.94
2022-10-11T00:30:56.396Z,11.03
2022-10-11T00:33:24.646Z,10.98
2022-10-11T00:35:52.979Z,11.03
2022-10-11T00:38:21.167Z,11.06
2022-10-11T00:40:49.285Z,11.08
2022-10-11T00:43:21.639Z,11.10
2022-10-11T00:46:08.256Z,11.13
2022-10-11T00:48:42.433Z,11.15
2022-10-11T00:51:18.015Z,11.12
2022-10-11T00:53:48.857Z,11.16
2022-10-11T00:56:21.952Z,11.17
2022-10-11T00:58:51.826Z,11.11
2022-10-11T01:01:20.145Z,11.07
2022-10-11T01:03:48.576Z,11.10
2022-10-11T01:06:16.701Z,11.12
2022-10-11T01:08:45.676Z,11.12
2022-10-11T01:11:16.138Z,11.10
2022-10-11T01:13:53.560Z,11.15
2022-10-11T01:16:29.899Z,11.17
2022-10-11T01:19:10.106Z,11.11
2022-10-11T01:21:43.782Z,11.16
2022-10-11T01:24:51.236Z,11.14
2022-10-11T01:27:39.234Z,11.17
2022-10-11T01:30:20.569Z,11.15
2022-10-11T01:32:55.869Z,11.19
2022-10-11T01:35:31.912Z,11.26
2022-10-11T01:38:03.907Z,11.24
2022-10-11T01:40:37.407Z,11.26
2022-10-11T01:43:06.474Z,11.28
2022-10-11T01:45:37.458Z,11.30
2022-10-11T01:48:08.035Z,11.34
2022-10-11T01:50:45.476Z,11.34
2022-10-11T01:53:41.527Z,11.34
2022-10-11T01:56:22.769Z,11.32
2022-10-11T01:59:08.160Z,11.31
2022-10-11T02:01:49.879Z,11.32
2022-10-11T02:04:27.297Z,11.32
2022-10-11T02:07:02.789Z,11.33
2022-10-11T02:09:37.574Z,11.32
2022-10-11T02:12:09.163Z,11.32
2022-10-11T02:14:40.836Z,11.31
2022-10-11T02:17:13.835Z,11.31
2022-10-11T02:19:48.301Z,11.29
2022-10-11T02:22:20.755Z,11.30
2022-10-11T02:24:51.964Z,11.30
2022-10-11T02:27:24.411Z,11.31
2022-10-11T02:29:55.771Z,11.30
2022-10-11T02:32:27.355Z,11.25
2022-10-11T02:34:56.692Z,11.27
2022-10-11T02:37:31.616Z,11.22
2022-10-11T02:40:08.198Z,11.19
2022-10-11T02:42:43.052Z,11.18
2022-10-11T02:45:17.460Z,11.18
2022-10-11T02:47:48.219Z,11.18
2022-10-11T02:50:17.686Z,11.17
2022-10-11T02:52:45.762Z,11.17
2022-10-11T02:55:13.913Z,11.16
2022-10-11T02:57:42.088Z,11.16
2022-10-11T03:00:11.377Z,11.22
2022-10-11T03:02:39.512Z,11.23
2022-10-11T03:05:10.256Z,11.19
2022-10-11T03:07:38.290Z,11.22
2022-10-11T03:10:07.507Z,11.19
2022-10-11T03:12:35.882Z,11.21
2022-10-11T03:15:04.005Z,11.19
2022-10-11T03:17:36.543Z,11.23
2022-10-11T03:20:06.210Z,11.22
2022-10-11T03:22:35.982Z,11.19
2022-10-11T03:25:04.975Z,11.18
2022-10-11T03:27:33.587Z,11.20
2022-10-11T03:30:01.764Z,11.21
2022-10-11T03:32:30.003Z,11.25
2022-10-11T03:34:58.289Z,11.21
2022-10-11T03:37:26.486Z,11.22
2022-10-11T03:39:56.023Z,11.21
2022-10-11T03:42:24.160Z,11.22
2022-10-11T03:44:52.275Z,11.23
2022-10-11T03:47:20.619Z,11.22
2022-10-11T03:49:48.741Z,11.22
2022-10-11T03:52:16.879Z,11.23
2022-10-11T03:54:44.984Z,11.23
2022-10-11T03:57:14.451Z,11.23
2022-10-11T03:59:42.609Z,11.24
2022-10-11T04:02:11.143Z,11.24
2022-10-11T04:04:39.410Z,11.23
2022-10-11T04:07:07.876Z,11.24
2022-10-11T04:09:36.287Z,11.25
2022-10-11T04:12:04.628Z,11.25
2022-10-11T04:14:34.288Z,11.25
2022-10-11T04:17:02.415Z,11.24
2022-10-11T04:19:30.603Z,11.24
2022-10-11T04:21:58.750Z,11.24
2022-10-11T04:24:26.931Z,11.23
2022-10-11T04:26:55.263Z,11.23
2022-10-11T04:29:23.691Z,11.22
2022-10-11T04:31:53.138Z,11.21
2022-10-11T04:34:21.292Z,11.20
2022-10-11T04:36:50.138Z,11.20
2022-10-11T04:39:18.712Z,11.21
2022-10-11T04:41:46.957Z,11.18
2022-10-11T04:44:15.040Z,11.21
2022-10-11T04:46:43.249Z,11.21
2022-10-11T04:49:12.891Z,11.19
2022-10-11T04:51:40.997Z,11.17
2022-10-11T04:54:09.145Z,11.17
2022-10-11T04:56:37.418Z,11.15
2022-10-11T04:59:05.526Z,11.15
2022-10-11T05:01:33.654Z,11.14
2022-10-11T05:04:01.965Z,11.13
2022-10-11T05:06:31.399Z,11.14
2022-10-11T05:09:00.656Z,11.13
2022-10-11T05:11:28.883Z,11.13
2022-10-11T05:13:56.999Z,11.13
2022-10-11T05:16:25.136Z,11.13
2022-10-11T05:18:53.406Z,11.14
2022-10-11T05:21:23.831Z,11.13
2022-10-11T05:23:55.938Z,11.14
2022-10-11T05:26:25.691Z,11.13
2022-10-11T05:28:53.967Z,11.14
2022-10-11T05:31:22.681Z,11.14
2022-10-11T05:33:50.839Z,11.15
2022-10-11T05:36:19.429Z,11.14
2022-10-11T05:38:47.928Z,11.14
2022-10-11T05:41:17.798Z,11.16
2022-10-11T05:43:46.176Z,11.19
2022-10-11T05:46:14.622Z,11.19
2022-10-11T05:48:42.857Z,11.19
2022-10-11T05:51:12.748Z,11.19
2022-10-11T05:53:41.084Z,11.18
2022-10-11T05:56:20.742Z,11.16
2022-10-11T05:58:49.295Z,11.16
2022-10-11T06:01:19.332Z,11.16
2022-10-11T06:03:47.449Z,11.19
2022-10-11T06:06:15.581Z,11.20
2022-10-11T06:08:44.044Z,11.20
2022-10-11T06:11:14.861Z,11.20
2022-10-11T06:13:44.753Z,11.20
2022-10-11T06:16:13.565Z,11.19
2022-10-11T06:18:42.020Z,11.20
2022-10-11T06:21:10.245Z,11.19
2022-10-11T06:23:38.444Z,11.16
2022-10-11T06:26:09.915Z,11.16
2022-10-11T06:28:38.837Z,11.16
2022-10-11T06:31:09.090Z,11.18
2022-10-11T06:33:38.342Z,11.17
2022-10-11T06:36:09.761Z,11.18
2022-10-11T06:38:42.317Z,11.19
2022-10-11T06:41:14.702Z,11.20
2022-10-11T06:43:42.825Z,11.22
2022-10-11T06:46:13.149Z,11.24
2022-10-11T06:48:42.240Z,11.27
2022-10-11T06:51:10.960Z,11.29
2022-10-11T06:53:39.415Z,11.30
2022-10-11T06:56:10.173Z,11.30
2022-10-11T06:58:38.372Z,11.35
2022-10-11T07:01:08.868Z,11.35
2022-10-11T07:03:38.853Z,11.37
2022-10-11T07:06:09.201Z,11.39
2022-10-11T07:08:38.817Z,11.41
2022-10-11T07:11:09.409Z,11.45
2022-10-11T07:13:38.301Z,11.47
2022-10-11T07:16:09.046Z,11.48
2022-10-11T07:18:39.346Z,11.53
2022-10-11T07:21:10.149Z,11.55
2022-10-11T07:23:38.439Z,11.56
2022-10-11T07:26:08.338Z,11.59
2022-10-11T07:28:37.673Z,11.59
2022-10-11T07:31:07.306Z,11.58
2022-10-11T07:33:35.455Z,11.59
2022-10-11T07:36:06.254Z,11.59
2022-10-11T07:38:35.037Z,11.58
2022-10-11T07:41:06.669Z,11.59
2022-10-11T07:43:35.332Z,11.59
2022-10-11T07:46:04.850Z,11.58
2022-10-11T07:48:35.013Z,11.58
2022-10-11T07:51:06.824Z,11.59
2022-10-11T07:53:40.867Z,11.59
2022-10-11T07:56:09.813Z,11.62
2022-10-11T07:58:37.934Z,11.61
2022-10-11T08:01:06.462Z,11.64
2022-10-11T08:03:34.706Z,11.68
2022-10-11T08:06:05.650Z,11.72
2022-10-11T08:08:34.382Z,11.74
2022-10-11T08:11:02.532Z,11.78
2022-10-11T08:13:30.891Z,11.82
2022-10-11T08:15:59.619Z,11.84
2022-10-11T08:18:27.945Z,11.85
2022-10-11T08:20:56.106Z,11.89
2022-10-11T08:23:25.582Z,11.88
2022-10-11T08:25:58.327Z,11.90
2022-10-11T08:28:26.461Z,11.90
2022-10-11T08:30:56.195Z,11.91
2022-10-11T08:33:26.590Z,11.95
2022-10-11T08:35:55.710Z,11.96
2022-10-11T08:38:25.791Z,11.97
2022-10-11T08:40:56.389Z,12.02
2022-10-11T08:43:36.015Z,12.03
2022-10-11T08:46:05.947Z,12.06
2022-10-11T08:48:37.949Z,12.08
2022-10-11T08:51:15.171Z,12.11
2022-10-11T08:53:50.930Z,12.16
2022-10-11T08:56:20.256Z,12.19
2022-10-11T08:58:54.720Z,12.18
2022-10-11T09:01:26.155Z,12.24
2022-10-11T09:03:54.171Z,12.25
2022-10-11T09:06:38.007Z,12.25
2022-10-11T09:09:23.166Z,12.26
2022-10-11T09:12:05.657Z,12.25
2022-10-11T09:15:09.434Z,12.25
2022-10-11T09:17:48.941Z,12.27
2022-10-11T09:20:32.384Z,12.28
2022-10-11T09:23:05.075Z,12.32
2022-10-11T09:25:36.679Z,12.34
2022-10-11T09:28:17.486Z,12.38
2022-10-11T09:30:49.303Z,12.43
2022-10-11T09:33:21.644Z,12.46
2022-10-11T09:35:51.453Z,12.54
2022-10-11T09:38:29.711Z,12.57
2022-10-11T09:41:09.445Z,12.62
2022-10-11T09:43:37.702Z,12.68
2022-10-11T09:46:18.763Z,12.75
2022-10-11T09:48:47.639Z,12.79
2022-10-11T09:51:19.411Z,12.85
2022-10-11T09:53:53.010Z,12.94
2022-10-11T09:56:23.554Z,13.02
2022-10-11T09:59:08.697Z,13.08
2022-10-11T10:01:37.229Z,13.17
2022-10-11T10:04:09.538Z,13.22
2022-10-11T10:06:38.426Z,13.32
2022-10-11T10:09:27.257Z,13.39
2022-10-11T10:11:57.605Z,13.45
2022-10-11T10:14:28.283Z,13.55
2022-10-11T10:17:03.308Z,13.69
2022-10-11T10:19:44.769Z,13.78
2022-10-11T10:22:19.985Z,13.89
2022-10-11T10:24:50.363Z,13.98
2022-10-11T10:27:23.124Z,14.04
2022-10-11T10:30:17.025Z,14.09
2022-10-11T10:32:55.749Z,14.09
2022-10-11T10:35:32.785Z,14.16
2022-10-11T10:38:10.284Z,14.19
2022-10-11T10:40:44.654Z,14.24
2022-10-11T10:43:19.390Z,14.29
2022-10-11T10:46:07.719Z,14.34
2022-10-11T10:49:19.155Z,14.45
2022-10-11T10:51:42.443Z,14.62
2022-10-11T10:54:22.413Z,14.78
2022-10-11T10:56:54.364Z,14.92
2022-10-11T10:59:44.431Z,15.11
2022-10-11T11:02:46.209Z,15.34
2022-10-11T11:05:18.956Z,15.51
2022-10-11T11:07:52.785Z,15.55
2022-10-11T11:10:24.234Z,15.59
2022-10-11T11:13:02.644Z,15.67
2022-10-11T11:15:39.999Z,15.66
2022-10-11T11:18:26.951Z,15.71
2022-10-11T11:21:13.977Z,15.91
2022-10-11T11:23:54.496Z,16.14
2022-10-11T11:26:32.798Z,16.29
2022-10-11T11:29:24.258Z,16.42
2022-10-11T11:32:12.185Z,16.43
2022-10-11T11:34:45.563Z,16.47
2022-10-11T11:37:24.306Z,16.59
2022-10-11T11:39:57.053Z,16.71
2022-10-11T11:42:32.220Z,16.74
2022-10-11T11:45:07.314Z,16.84
2022-10-11T11:47:41.866Z,16.86
2022-10-11T11:50:22.782Z,16.86
2022-10-11T11:52:54.417Z,16.85
2022-10-11T11:55:28.155Z,16.82
2022-10-11T11:58:06.949Z,16.79
2022-10-11T12:00:47.812Z,16.78
2022-10-11T12:03:22.696Z,16.71
2022-10-11T12:06:20.394Z,16.64
2022-10-11T12:08:50.830Z,16.72
2022-10-11T12:11:22.231Z,16.77
2022-10-11T12:13:52.010Z,16.79
2022-10-11T12:16:21.513Z,16.79
2022-10-11T12:18:55.436Z,16.83
2022-10-11T12:21:30.795Z,16.69
2022-10-11T12:24:00.483Z,16.51
2022-10-11T12:26:36.893Z,16.33
2022-10-11T12:29:34.571Z,16.19
2022-10-11T12:32:48.372Z,15.88
2022-10-11T12:35:42.796Z,15.69
2022-10-11T12:38:21.284Z,15.62
2022-10-11T12:40:51.398Z,15.60
2022-10-11T12:43:32.757Z,15.49
2022-10-11T12:46:35.101Z,15.46
2022-10-11T12:49:19.085Z,15.44
2022-10-11T12:51:55.886Z,15.44
2022-10-11T12:54:56.005Z,15.46
2022-10-11T12:57:52.864Z,15.51
2022-10-11T13:00:27.967Z,15.60
2022-10-11T13:02:57.292Z,15.68
2022-10-11T13:05:28.569Z,15.79
2022-10-11T13:08:03.977Z,15.91
2022-10-11T13:10:37.270Z,15.97
2022-10-11T13:13:11.174Z,15.91
2022-10-11T13:15:39.332Z,15.88
2022-10-11T13:18:07.401Z,15.82
2022-10-11T13:20:38.911Z,15.85
2022-10-11T13:23:23.240Z,15.89
2022-10-11T13:25:52.154Z,15.81
2022-10-11T13:28:21.553Z,15.79
2022-10-11T13:30:51.542Z,15.74
2022-10-11T13:33:23.656Z,15.70
2022-10-11T13:35:52.291Z,15.64
2022-10-11T13:38:27.110Z,15.57
2022-10-11T13:40:56.673Z,15.54
2022-10-11T13:43:27.462Z,15.51
2022-10-11T13:45:57.210Z,15.45
2022-10-11T13:48:29.440Z,15.38
2022-10-11T13:51:08.005Z,15.30
2022-10-11T13:53:37.455Z,15.28
2022-10-11T13:56:08.885Z,15.26
2022-10-11T13:58:41.196Z,15.26
2022-10-11T14:01:20.976Z,15.25
2022-10-11T14:03:54.649Z,15.24
2022-10-11T14:06:23.086Z,15.25
2022-10-11T14:08:56.435Z,15.21
2022-10-11T14:11:36.622Z,15.16
2022-10-11T14:14:40.099Z,15.09
2022-10-11T14:17:14.770Z,15.13
2022-10-11T14:19:43.417Z,15.13
2022-10-11T14:22:15.679Z,15.19
2022-10-11T14:24:48.626Z,15.22
2022-10-11T14:27:20.552Z,15.18
2022-10-11T14:30:06.125Z,15.21
2022-10-11T14:32:37.709Z,15.19
2022-10-11T14:35:06.941Z,15.26
2022-10-11T14:37:35.015Z,15.27
2022-10-11T14:40:13.361Z,15.18
2022-10-11T14:42:41.542Z,15.20
2022-10-11T14:45:10.945Z,15.22
2022-10-11T14:47:42.828Z,15.20
2022-10-11T14:50:24.017Z,15.19
2022-10-11T14:52:52.284Z,15.19
2022-10-11T14:55:21.774Z,15.17
2022-10-11T14:57:50.077Z,15.14
2022-10-11T15:00:22.446Z,15.11
2022-10-11T15:02:50.851Z,15.11
2022-10-11T15:05:19.029Z,15.15
2022-10-11T15:07:47.228Z,15.15
2022-10-11T15:10:23.275Z,15.11
2022-10-11T15:12:52.278Z,15.06
2022-10-11T15:15:22.969Z,15.01
2022-10-11T15:17:53.715Z,14.97
2022-10-11T15:20:25.521Z,14.96
2022-10-11T15:22:53.950Z,14.98
2022-10-11T15:25:24.446Z,14.97
2022-10-11T15:27:53.307Z,14.92
2022-10-11T15:30:23.605Z,14.87
2022-10-11T15:32:53.763Z,14.82
2022-10-11T15:35:22.977Z,14.75
2022-10-11T15:37:53.781Z,14.71
2022-10-11T15:40:25.200Z,14.65
2022-10-11T15:42:55.667Z,14.53
2022-10-11T15:45:25.014Z,14.54
2022-10-11T15:47:53.398Z,14.51
2022-10-11T15:50:34.986Z,14.44
2022-10-11T15:53:04.520Z,14.42
2022-10-11T15:55:36.103Z,14.40
2022-10-11T15:58:04.363Z,14.35
2022-10-11T16:00:32.919Z,14.33
2022-10-11T16:03:01.106Z,14.31
2022-10-11T16:05:30.441Z,14.30
2022-10-11T16:07:58.601Z,14.30
2022-10-11T16:10:27.025Z,14.34
2022-10-11T16:12:57.232Z,14.35
2022-10-11T16:15:25.433Z,14.26
2022-10-11T16:17:53.640Z,14.26
2022-10-11T16:20:24.449Z,14.26
2022-10-11T16:22:55.399Z,14.28
2022-10-11T16:25:23.832Z,14.25
2022-10-11T16:27:52.704Z,14.22
2022-10-11T16:30:22.590Z,14.20
2022-10-11T16:32:50.801Z,14.18
2022-10-11T16:35:19.164Z,14.18
2022-10-11T16:37:47.556Z,14.17
2022-10-11T16:40:17.708Z,14.16
2022-10-11T16:42:46.671Z,14.13
2022-10-11T16:45:16.034Z,14.09
2022-10-11T16:47:46.174Z,14.05
2022-10-11T16:50:14.530Z,14.04
2022-10-11T16:52:42.665Z,14.02
2022-10-11T16:55:11.664Z,13.97
2022-10-11T16:57:40.115Z,13.97
2022-10-11T17:00:10.788Z,13.94
2022-10-11T17:02:39.072Z,13.91
2022-10-11T17:05:09.260Z,13.90
2022-10-11T17:07:37.352Z,13.87
2022-10-11T17:10:06.487Z,13.87
2022-10-11T17:12:37.246Z,13.84
2022-10-11T17:15:06.990Z,13.85
2022-10-11T17:17:35.408Z,13.83
2022-10-11T17:20:03.771Z,13.78
2022-10-11T17:22:33.272Z,13.78
2022-10-11T17:25:03.518Z,13.76
2022-10-11T17:27:31.783Z,13.74
2022-10-11T17:29:59.871Z,13.72
2022-10-11T17:32:28.141Z,13.73
2022-10-11T17:34:57.472Z,13.75
2022-10-11T17:37:25.871Z,13.74
2022-10-11T17:39:55.959Z,13.70
2022-10-11T17:42:24.071Z,13.68
2022-10-11T17:44:52.256Z,13.66
2022-10-11T17:47:20.430Z,13.64
2022-10-11T17:49:48.557Z,13.61
2022-10-11T17:52:16.699Z,13.59
2022-10-11T17:54:44.872Z,13.58
2022-10-11T17:57:14.456Z,13.52
2022-10-11T17:59:42.677Z,13.50
2022-10-11T18:02:11.319Z,13.50
2022-10-11T18:04:39.513Z,13.46
2022-10-11T18:07:07.848Z,13.45
2022-10-11T18:09:36.869Z,13.42
2022-10-11T18:12:05.459Z,13.42
2022-10-11T18:14:35.011Z,13.40
2022-10-11T18:17:03.388Z,13.39
2022-10-11T18:19:32.085Z,13.39
2022-10-11T18:22:04.484Z,13.49
2022-10-11T18:24:35.798Z,13.50
2022-10-11T18:27:03.981Z,13.48
2022-10-11T18:29:32.367Z,13.46
2022-10-11T18:32:01.993Z,13.36
2022-10-11T18:34:30.226Z,13.30
2022-10-11T18:36:58.301Z,13.28
2022-10-11T18:39:26.636Z,13.21
2022-10-11T18:41:54.838Z,13.14
2022-10-11T18:44:23.042Z,13.09
2022-10-11T18:46:51.335Z,13.08
2022-10-11T18:49:20.963Z,13.08
2022-10-11T18:51:49.234Z,13.05
2022-10-11T18:54:21.171Z,13.08
2022-10-11T18:56:49.693Z,13.08
2022-10-11T18:59:18.210Z,13.09
2022-10-11T19:01:46.970Z,13.09
2022-10-11T19:04:16.892Z,13.09
2022-10-11T19:06:48.948Z,13.06
2022-10-11T19:09:21.557Z,13.05
2022-10-11T19:11:50.643Z,13.07
2022-10-11T19:14:21.508Z,13.11
2022-10-11T19:16:51.752Z,13.11
2022-10-11T19:19:21.729Z,13.13
2022-10-11T19:21:52.060Z,13.09
2022-10-11T19:24:22.163Z,13.10
2022-10-11T19:26:53.174Z,13.10
2022-10-11T19:29:23.550Z,13.09
2022-10-11T19:31:53.939Z,13.10
2022-10-11T19:34:23.322Z,13.09
2022-10-11T19:36:53.499Z,13.05
2022-10-11T19:39:23.536Z,13.11
2022-10-11T19:41:52.454Z,13.14
2022-10-11T19:44:21.203Z,13.12
2022-10-11T19:46:52.043Z,13.11
2022-10-11T19:49:22.759Z,13.09
2022-10-11T19:51:52.747Z,13.08
2022-10-11T19:54:21.316Z,13.06
2022-10-11T19:56:49.592Z,13.07
2022-10-11T19:59:18.217Z,13.06
2022-10-11T20:01:52.003Z,13.03
2022-10-11T20:07:12.921Z,13.02
2022-10-11T20:09:41.145Z,13.01
2022-10-11T20:12:09.768Z,13.03
2022-10-11T20:14:37.850Z,13.01
2022-10-11T20:17:06.085Z,13.02
2022-10-11T20:19:34.289Z,13.03
2022-10-11T20:22:02.448Z,13.02
2022-10-11T20:24:34.611Z,13.00
2022-10-11T20:27:04.685Z,12.98
2022-10-11T20:29:33.121Z,12.88
2022-10-11T20:32:01.267Z,12.87
2022-10-11T20:34:29.623Z,12.86
2022-10-11T20:36:58.055Z,12.84
2022-10-11T20:39:26.336Z,12.84
2022-10-11T20:41:55.987Z,12.84
2022-10-11T20:44:24.287Z,12.84
2022-10-11T20:46:52.536Z,12.84
2022-10-11T20:49:22.510Z,12.84
2022-10-11T20:51:51.068Z,12.85
2022-10-11T20:54:19.183Z,12.87
2022-10-11T20:56:47.337Z,12.87
2022-10-11T20:59:16.975Z,12.90
2022-10-11T21:01:45.269Z,12.92
2022-10-11T21:04:19.056Z,12.93
2022-10-11T21:06:48.513Z,12.93
2022-10-11T21:09:17.443Z,12.93
2022-10-11T21:11:46.342Z,12.94
2022-10-11T21:14:16.203Z,12.91
2022-10-11T21:16:44.528Z,12.89
2022-10-11T21:19:16.271Z,12.89
2022-10-11T21:21:50.938Z,12.91
2022-10-11T21:24:22.009Z,12.91
2022-10-11T21:26:50.198Z,12.91
2022-10-11T21:29:20.135Z,12.89
2022-10-11T21:31:48.327Z,12.90
2022-10-11T21:34:16.714Z,12.89
2022-10-11T21:36:44.813Z,12.88
2022-10-11T21:39:13.215Z,12.89
2022-10-11T21:41:42.344Z,12.90
2022-10-11T21:44:10.796Z,12.88
2022-10-11T21:47:06.546Z,12.89
2022-10-11T21:49:28.846Z,12.88
2022-10-11T21:51:57.020Z,12.88
2022-10-11T21:54:25.196Z,12.89
2022-10-11T21:56:53.383Z,12.88
2022-10-11T21:59:22.609Z,12.87
2022-10-11T22:01:52.232Z,12.89
2022-10-11T22:04:20.351Z,12.89
2022-10-11T22:06:48.637Z,12.88
2022-10-11T22:09:16.755Z,12.91
2022-10-11T22:11:45.288Z,12.90
2022-10-11T22:14:14.046Z,12.90
2022-10-11T22:16:42.192Z,12.88
2022-10-11T22:19:11.813Z,12.89
2022-10-11T22:21:44.770Z,12.88
2022-10-11T22:24:13.859Z,12.91
2022-10-11T22:26:42.091Z,12.96
2022-10-11T22:29:10.216Z,12.97
2022-10-11T22:31:38.471Z,13.00
2022-10-11T22:34:06.934Z,13.01
2022-10-11T22:36:36.573Z,12.98
2022-10-11T22:39:08.038Z,13.02
2022-10-11T22:41:36.645Z,13.00
2022-10-11T22:44:05.632Z,13.02
2022-10-11T22:46:33.989Z,13.03
2022-10-11T22:49:02.088Z,13.05
2022-10-11T22:51:30.233Z,13.07
2022-10-11T22:53:59.836Z,13.12
2022-10-11T22:56:28.042Z,13.12
2022-10-11T22:58:56.295Z,13.13
2022-10-11T23:01:24.562Z,13.14
2022-10-11T23:03:52.754Z,13.15
2022-10-11T23:06:20.908Z,13.14
2022-10-11T23:08:49.084Z,13.14
2022-10-11T23:11:18.581Z,13.15
2022-10-11T23:13:46.664Z,13.15
2022-10-11T23:16:15.034Z,13.14
2022-10-11T23:18:43.257Z,13.12
2022-10-11T23:21:11.606Z,13.09
2022-10-11T23:23:40.518Z,13.07
2022-10-11T23:26:11.968Z,13.02
2022-10-11T23:28:42.105Z,12.99
2022-10-11T23:31:13.267Z,12.99
2022-10-11T23:33:41.872Z,12.97
2022-10-11T23:36:15.339Z,12.95
2022-10-11T23:38:43.602Z,12.95
2022-10-11T23:41:11.886Z,12.96
2022-10-11T23:43:41.358Z,12.97
2022-10-11T23:46:09.603Z,12.98
2022-10-11T23:48:37.633Z,12.91
2022-10-11T23:51:05.928Z,12.90
2022-10-11T23:53:34.440Z,12.86
2022-10-11T23:56:02.761Z,12.86
2022-10-11T23:58:30.863Z,12.86
